»·PEaware :: N645TB KONT-KLAS

N645TB :: KONT-KLAS

FLIGHT INFORMATION

Flight Status: Arrived
Operator: Privately registered:
United States
More flights under this callsign
Pilot: Bongani M. (34260)
Aircraft: Unknown
(TB21)
More flights by this aircraft type
Origin: KONT Ontario Intl
United States
Destination: KLAS Harry Reid Intl
United States
More flights between these airports :: More routes between these airports
Route: PDZ V442 HEC CRESO5
File this flight plan on PilotEdge
Remarks:
Altitude:
(Current/Filed)
11,000ft
Speed:
(Current/Filed)
187kts
Departed: 03-Oct-22 12:25 PM
Arrived: 03-Oct-22 01:42 PM
Distance/Time
Traveled:
171nm/1:17
Distance/Time
To Go:
Arrived

Flight Plot

Page will automatically refresh every two minutes.

Flight plan parsing failed; only flown route is shown


Map Options




Map Legend


Flown Route
Filed Route
Departure Airport
Arrival Airport
Navaid (VOR, NDB)
Fix

Horizontal Profiles

Position Reports

Time Latitude Longitude Heading Altitude Ground
Speed
03-Oct-22 11:57 34.052822 -117.611633 179 938ft 0kts
03-Oct-22 11:58 34.052822 -117.611633 179 938ft 0kts
03-Oct-22 11:59 34.052822 -117.611633 179 938ft 0kts
03-Oct-22 12:00 34.052822 -117.611633 179 938ft 0kts
03-Oct-22 12:01 34.052822 -117.611633 179 938ft 0kts
03-Oct-22 12:02 34.052822 -117.611633 179 938ft 0kts
03-Oct-22 12:03 34.052822 -117.611633 179 938ft 0kts
03-Oct-22 12:04 34.052822 -117.611633 179 938ft 0kts
03-Oct-22 12:05 34.052822 -117.611633 179 938ft 0kts
03-Oct-22 12:06 34.052822 -117.611633 179 938ft 0kts
03-Oct-22 12:07 34.052822 -117.611633 179 938ft 0kts
03-Oct-22 12:08 34.052822 -117.611633 179 938ft 0kts
03-Oct-22 12:09 34.052822 -117.611633 179 938ft 0kts
03-Oct-22 12:10 34.052822 -117.611633 179 938ft 0kts
03-Oct-22 12:11 34.052822 -117.611633 179 938ft 0kts
03-Oct-22 12:12 34.052534 -117.612620 274 939ft 2kts
03-Oct-22 12:13 34.053817 -117.612437 69 940ft 8kts
03-Oct-22 12:14 34.053869 -117.608498 90 936ft 14kts
03-Oct-22 12:15 34.053874 -117.603352 89 933ft 16kts
03-Oct-22 12:16 34.053859 -117.598093 87 934ft 15kts
03-Oct-22 12:17 34.053877 -117.592907 89 933ft 16kts
03-Oct-22 12:18 34.053879 -117.587030 87 929ft 17kts
03-Oct-22 12:19 34.053737 -117.582922 136 929ft 7kts
03-Oct-22 12:20 34.053290 -117.582614 12 928ft 0kts
03-Oct-22 12:21 34.053982 -117.582721 359 929ft 0kts
03-Oct-22 12:22 34.053990 -117.582722 356 929ft 0kts
03-Oct-22 12:23 34.054765 -117.582787 342 929ft 10kts
03-Oct-22 12:24 34.055134 -117.609876 267 1647ft 133kts
03-Oct-22 12:25 34.031008 -117.642658 181 3101ft 145kts
03-Oct-22 12:26 34.008385 -117.616810 61 3936ft 162kts
03-Oct-22 12:27 34.034493 -117.595876 317 5622ft 127kts
03-Oct-22 12:28 34.057083 -117.627041 312 6885ft 121kts
03-Oct-22 12:29 34.045101 -117.648077 153 7894ft 118kts
03-Oct-22 12:30 34.017859 -117.636269 93 8573ft 118kts
03-Oct-22 12:31 34.003509 -117.610322 195 8633ft 138kts
03-Oct-22 12:32 33.972553 -117.633112 209 8899ft 123kts
03-Oct-22 12:33 33.965252 -117.661431 5 8965ft 118kts
03-Oct-22 12:34 33.991492 -117.642085 35 9662ft 110kts
03-Oct-22 12:35 34.016267 -117.620906 35 10676ft 107kts
03-Oct-22 12:36 34.044084 -117.596236 34 10991ft 142kts
03-Oct-22 12:37 34.077984 -117.566748 35 10977ft 154kts
03-Oct-22 12:38 34.112592 -117.535987 35 10995ft 155kts
03-Oct-22 12:39 34.147705 -117.505129 34 10969ft 156kts
03-Oct-22 12:40 34.183833 -117.473224 35 10966ft 166kts
03-Oct-22 12:41 34.221372 -117.440092 35 10949ft 168kts
03-Oct-22 12:42 34.259283 -117.406530 34 10964ft 169kts
03-Oct-22 12:43 34.297148 -117.373044 35 10969ft 170kts
03-Oct-22 12:44 34.335435 -117.339147 34 10949ft 169kts
03-Oct-22 12:45 34.373346 -117.305449 35 10999ft 169kts
03-Oct-22 12:46 34.411929 -117.271211 35 11008ft 173kts
03-Oct-22 12:47 34.450884 -117.236502 35 11005ft 173kts
03-Oct-22 12:48 34.489892 -117.201775 35 10966ft 174kts
03-Oct-22 12:49 34.527772 -117.168001 35 10959ft 174kts
03-Oct-22 12:50 34.557903 -117.122886 59 10939ft 173kts
03-Oct-22 12:51 34.577570 -117.069665 64 10922ft 172kts
03-Oct-22 12:52 34.597042 -117.016449 65 10896ft 172kts
03-Oct-22 12:53 34.616452 -116.963093 65 10888ft 172kts
03-Oct-22 12:54 34.635932 -116.909537 65 10895ft 173kts
03-Oct-22 12:55 34.655352 -116.856048 66 10901ft 173kts
03-Oct-22 12:56 34.674812 -116.802338 66 10892ft 174kts
03-Oct-22 12:57 34.694212 -116.748742 66 10949ft 170kts
03-Oct-22 12:58 34.713522 -116.695226 66 10954ft 174kts
03-Oct-22 12:59 34.733042 -116.641063 66 10946ft 174kts
03-Oct-22 13:00 34.752399 -116.587257 66 10944ft 173kts
03-Oct-22 13:01 34.771676 -116.533555 66 10938ft 173kts
03-Oct-22 13:02 34.790969 -116.479789 66 10929ft 173kts
03-Oct-22 13:03 34.819651 -116.433278 43 10911ft 173kts
03-Oct-22 13:04 34.852499 -116.390490 46 10906ft 173kts
03-Oct-22 13:05 34.885456 -116.347459 46 10889ft 173kts
03-Oct-22 13:06 34.918246 -116.304634 46 10883ft 172kts
03-Oct-22 13:07 34.950952 -116.261807 46 10887ft 172kts
03-Oct-22 13:08 34.983377 -116.219227 46 10885ft 171kts
03-Oct-22 13:09 35.015907 -116.176502 46 10884ft 171kts
03-Oct-22 13:10 35.048351 -116.133767 45 10890ft 171kts
03-Oct-22 13:11 35.080770 -116.091120 46 10896ft 171kts
03-Oct-22 13:12 35.113213 -116.048320 45 10899ft 172kts
03-Oct-22 13:13 35.145647 -116.005545 45 10911ft 171kts
03-Oct-22 13:14 35.177961 -115.962830 46 10914ft 171kts
03-Oct-22 13:15 35.210189 -115.920186 45 10923ft 170kts
03-Oct-22 13:16 35.242503 -115.877385 45 10932ft 170kts
03-Oct-22 13:17 35.274684 -115.834705 45 10942ft 171kts
03-Oct-22 13:18 35.306826 -115.791976 45 10954ft 170kts
03-Oct-22 13:19 35.339240 -115.748850 46 10961ft 172kts
03-Oct-22 13:20 35.371839 -115.705658 46 10966ft 171kts
03-Oct-22 13:21 35.403971 -115.662771 45 10976ft 170kts
03-Oct-22 13:22 35.436021 -115.619927 45 10984ft 170kts
03-Oct-22 13:23 35.468073 -115.577062 45 11000ft 172kts
03-Oct-22 13:24 35.500284 -115.533858 46 10509ft 168kts
03-Oct-22 13:25 35.532646 -115.490551 46 9544ft 180kts
03-Oct-22 13:26 35.566943 -115.444509 46 8557ft 183kts
03-Oct-22 13:27 35.600606 -115.399217 46 8028ft 170kts
03-Oct-22 13:28 35.631934 -115.357057 46 7998ft 165kts
03-Oct-22 13:29 35.662982 -115.315239 46 7990ft 165kts
03-Oct-22 13:30 35.694397 -115.273009 42 7988ft 167kts
03-Oct-22 13:31 35.737533 -115.254341 14 7999ft 165kts
03-Oct-22 13:32 35.781833 -115.239007 14 8003ft 165kts
03-Oct-22 13:33 35.825984 -115.223559 15 8012ft 166kts
03-Oct-22 13:34 35.870990 -115.207652 15 8006ft 168kts
03-Oct-22 13:35 35.916725 -115.191708 15 7187ft 168kts
03-Oct-22 13:36 35.953674 -115.208331 333 6150ft 131kts
03-Oct-22 13:37 35.987792 -115.215935 10 5268ft 121kts
03-Oct-22 13:38 36.018230 -115.203875 25 4297ft 116kts
03-Oct-22 13:39 36.046509 -115.187036 29 3022ft 104kts
03-Oct-22 13:40 36.072050 -115.172335 24 2405ft 97kts
03-Oct-22 13:41 36.086943 -115.163774 25 2185ft 28kts
03-Oct-22 13:42 36.089407 -115.163587 294 2186ft 0kts
03-Oct-22 13:43 36.092058 -115.163216 27 2181ft 18kts
03-Oct-22 13:44 36.097003 -115.160378 21 2182ft 16kts
03-Oct-22 13:45 36.098838 -115.159959 295 2182ft 9kts
03-Oct-22 13:46 36.099480 -115.159693 111 2184ft 0kts

Navigation Log

Ident Type
Flight plan parsing failed, navigation log unavailable